Time;durP1;ratioP1;P1;durP2;ratioP2;P2;SDS_P1;SDS_P2;PMS_P1;PMS_P2;Temp;Humidity;BMP_temperature;BMP_pressure;BME280_temperature;BME280_humidity;BME280_pressure;Samples;Min_cycle;Max_cycle;Signal;HPM_P1;HPM_P2
2023/10/23 00:00:10;;;;;;;;;14.50;14.50;;;;;11.09;100.00;99557.59;6281949;20;2801321;-40
2023/10/23 00:02:39;;;;;;;;;17.00;15.33;;;;;11.00;100.00;99564.41;6280006;20;3551382;-40
2023/10/23 00:05:08;;;;;;;;;12.00;12.00;;;;;10.86;100.00;99556.41;6277607;20;3416910;-40
2023/10/23 00:07:36;;;;;;;;;14.50;12.00;;;;;10.84;100.00;99555.63;6311514;20;2796259;-40
2023/10/23 00:10:05;;;;;;;;;10.50;10.00;;;;;10.74;100.00;99561.63;6281680;20;2783583;-40
2023/10/23 00:12:33;;;;;;;;;14.50;13.00;;;;;10.59;100.00;99559.03;6284625;20;2809786;-40
2023/10/23 00:15:02;;;;;;;;;14.00;13.00;;;;;10.80;100.00;99552.28;6284658;20;2806546;-40
2023/10/23 00:17:30;;;;;;;;;11.00;10.00;;;;;11.01;100.00;99557.25;6277771;20;2790913;-40
2023/10/23 00:20:01;;;;;;;;;17.67;16.00;;;;;10.93;100.00;99563.09;6280690;20;3533715;-41
2023/10/23 00:22:29;;;;;;;;;10.50;10.50;;;;;11.13;100.00;99562.63;6276377;20;2783603;-40
2023/10/23 00:24:57;;;;;;;;;13.00;9.00;;;;;11.11;100.00;99561.91;6282449;20;2776381;-40
2023/10/23 00:27:25;;;;;;;;;14.00;13.00;;;;;11.28;100.00;99554.53;6276240;20;2797184;-40
2023/10/23 00:29:53;;;;;;;;;11.50;9.00;;;;;11.07;100.00;99552.31;6280287;20;2780466;-40
2023/10/23 00:32:21;;;;;;;;;7.00;7.00;;;;;11.18;100.00;99552.44;6281383;20;2731659;-40
2023/10/23 00:34:49;;;;;;;;;7.50;7.50;;;;;11.17;100.00;99556.13;6281880;20;2742080;-40
2023/10/23 00:37:17;;;;;;;;;8.00;8.00;;;;;10.82;100.00;99560.22;6281996;20;2738845;-40
2023/10/23 00:39:45;;;;;;;;;5.50;3.00;;;;;10.96;100.00;99565.59;6288995;20;2751383;-40
2023/10/23 00:42:13;;;;;;;;;17.67;16.00;;;;;11.20;100.00;99572.03;6284075;20;3558607;-40
2023/10/23 00:44:41;;;;;;;;;17.50;15.00;;;;;10.97;100.00;99564.63;6285320;20;2498274;-40
2023/10/23 00:47:11;;;;;;;;;17.33;16.00;;;;;10.67;100.00;99568.31;6281022;20;3538842;-40
2023/10/23 00:49:39;;;;;;;;;16.00;13.50;;;;;10.77;100.00;99569.47;6286155;20;2804548;-40
2023/10/23 00:52:08;;;;;;;;;10.00;9.00;;;;;10.68;100.00;99570.03;6280652;20;2776498;-40
2023/10/23 00:54:38;;;;;;;;;13.33;12.00;;;;;10.91;100.00;99562.34;6284646;20;2792059;-40
2023/10/23 00:57:08;;;;;;;;;7.50;7.50;;;;;10.41;100.00;99561.06;6311827;20;2744175;-40
2023/10/23 00:59:37;;;;;;;;;13.60;9.80;;;;;10.58;100.00;99568.03;6306234;20;2788828;-41
2023/10/23 01:02:05;;;;;;;;;14.00;12.00;;;;;10.19;100.00;99557.00;6287790;20;2788947;-39
2023/10/23 01:04:34;;;;;;;;;14.67;13.00;;;;;10.13;100.00;99560.06;6284503;20;2800335;-40
2023/10/23 01:07:02;;;;;;;;;13.00;12.50;;;;;9.93;100.00;99565.81;6311660;20;2790939;-40
2023/10/23 01:09:30;;;;;;;;;7.00;7.00;;;;;10.10;100.00;99570.97;6289343;20;2744142;-40
2023/10/23 01:11:59;;;;;;;;;13.67;11.67;;;;;9.75;100.00;99570.47;6281435;20;2799308;-40
2023/10/23 01:14:28;;;;;;;;;11.80;11.80;;;;;9.94;100.00;99578.25;6338408;20;2785863;-41
2023/10/23 01:16:57;;;;;;;;;14.67;13.33;;;;;9.66;100.00;99579.88;6282881;20;3522161;-41
2023/10/23 01:19:27;;;;;;;;;12.40;10.00;;;;;10.41;100.00;99579.84;6339497;20;2789886;-40
2023/10/23 01:21:56;;;;;;;;;13.33;12.00;;;;;10.09;100.00;99566.59;6282847;20;2803518;-40
2023/10/23 01:24:27;;;;;;;;;13.50;11.00;;;;;10.09;100.00;99571.94;6315483;20;2792028;-40
2023/10/23 01:26:57;;;;;;;;;11.60;11.40;;;;;9.98;100.00;99569.03;6306652;20;2795231;-41
2023/10/23 01:29:26;;;;;;;;;12.67;11.33;;;;;9.72;100.00;99576.00;6283062;20;2790138;-41
2023/10/23 01:31:54;;;;;;;;;14.00;12.00;;;;;9.56;100.00;99573.38;6319652;20;2786700;-40
2023/10/23 01:34:22;;;;;;;;;19.50;15.50;;;;;9.82;100.00;99570.00;6284166;20;2496116;-40
2023/10/23 01:36:49;;;;;;;;;12.00;12.00;;;;;9.69;100.00;99571.69;6285986;20;2794094;-40
2023/10/23 01:39:18;;;;;;;;;14.00;13.00;;;;;9.98;100.00;99579.78;6283790;20;3513842;-40
2023/10/23 01:41:47;;;;;;;;;14.33;12.67;;;;;9.82;100.00;99571.78;6311934;20;2791120;-41
2023/10/23 01:44:15;;;;;;;;;10.50;10.50;;;;;10.00;100.00;99562.63;6311576;20;2778553;-39
2023/10/23 01:46:43;;;;;;;;;14.00;13.67;;;;;9.91;100.00;99567.72;6281059;20;2808754;-40
2023/10/23 01:49:12;;;;;;;;;13.00;13.00;;;;;10.21;100.00;99564.94;6311645;20;2797166;-40
2023/10/23 01:51:40;;;;;;;;;13.00;12.00;;;;;9.62;100.00;99555.09;6312467;20;2776471;-42
2023/10/23 01:54:09;;;;;;;;;15.67;14.67;;;;;9.49;100.00;99561.28;6283104;20;3535783;-41
2023/10/23 01:56:37;;;;;;;;;12.67;12.67;;;;;9.55;100.00;99566.28;6309880;20;3539884;-40
2023/10/23 01:59:05;;;;;;;;;12.50;11.00;;;;;9.41;100.00;99562.59;6278628;20;2786787;-40
2023/10/23 02:01:37;;;;;;;;;11.50;11.00;;;;;9.51;100.00;99570.09;6283031;20;2790971;-39
2023/10/23 02:04:06;;;;;;;;;14.00;13.00;;;;;8.87;100.00;99570.16;6284771;20;2787938;-41
2023/10/23 02:06:35;;;;;;;;;14.00;13.00;;;;;9.28;100.00;99569.63;6278336;20;3540900;-40
2023/10/23 02:09:05;;;;;;;;;13.67;13.00;;;;;10.05;100.00;99575.75;6309215;20;3509691;-40
2023/10/23 02:11:33;;;;;;;;;13.67;12.00;;;;;9.42;100.00;99572.34;6309159;20;2781588;-40
2023/10/23 02:14:03;;;;;;;;;9.40;9.00;;;;;9.38;100.00;99567.28;6339499;20;2754470;-40
2023/10/23 02:16:31;;;;;;;;;13.00;12.00;;;;;9.22;100.00;99570.00;6284285;20;2784797;-40
2023/10/23 02:18:59;;;;;;;;;12.00;11.00;;;;;9.29;100.00;99565.97;6287989;20;2791953;-40
2023/10/23 02:21:27;;;;;;;;;11.00;11.00;;;;;9.82;100.00;99564.63;6282119;20;2786765;-40
2023/10/23 02:23:54;;;;;;;;;13.00;11.00;;;;;9.97;100.00;99557.47;6283058;20;2781558;-40
2023/10/23 02:26:26;;;;;;;;;12.40;11.40;;;;;9.51;100.00;99562.06;6306267;20;2798262;-48
2023/10/23 02:28:55;;;;;;;;;13.33;12.00;;;;;9.49;100.00;99561.28;6283200;20;3520064;-49
2023/10/23 02:31:24;;;;;;;;;11.60;11.60;;;;;9.11;100.00;99562.56;6336067;20;2794047;-48
2023/10/23 02:33:52;;;;;;;;;13.00;11.50;;;;;9.56;100.00;99562.66;6283827;20;2787769;-48
2023/10/23 02:36:21;;;;;;;;;12.00;11.00;;;;;9.16;100.00;99570.31;6279894;20;3515902;-48
2023/10/23 02:38:49;;;;;;;;;12.00;12.00;;;;;9.13;100.00;99562.47;6313114;20;2784879;-48
2023/10/23 02:41:17;;;;;;;;;12.50;11.00;;;;;9.34;100.00;99563.91;6285652;20;2792101;-49
2023/10/23 02:43:45;;;;;;;;;13.00;12.00;;;;;9.67;100.00;99565.56;6283121;20;2744032;-48
2023/10/23 02:46:14;;;;;;;;;11.00;10.00;;;;;9.72;100.00;99562.59;6280451;20;2798248;-48
2023/10/23 02:48:43;;;;;;;;;19.00;14.67;;;;;9.38;100.00;99567.28;6310298;20;3549215;-48
2023/10/23 02:51:13;;;;;;;;;14.00;11.60;;;;;9.42;100.00;99569.66;6333772;20;2794032;-48
2023/10/23 02:53:41;;;;;;;;;10.00;9.00;;;;;10.09;100.00;99571.94;6288080;20;2767982;-49
2023/10/23 02:56:15;;;;;;;;;11.00;11.00;;;;;10.24;100.00;99567.44;6279828;20;2792082;-49
2023/10/23 02:58:42;;;;;;;;;14.00;12.00;;;;;9.51;100.00;99570.09;6279216;20;2786731;-48
2023/10/23 03:01:22;;;;;;;;;11.00;11.00;;;;;9.67;100.00;99579.81;6279033;20;2792989;-49
2023/10/23 03:03:51;;;;;;;;;13.00;10.50;;;;;9.64;100.00;99579.16;6282493;20;2791945;-49
2023/10/23 03:06:23;;;;;;;;;12.57;9.00;;;;;8.91;100.00;99573.56;6321144;20;1808066;-48
2023/10/23 03:08:52;;;;;;;;;14.00;12.00;;;;;9.01;100.00;99580.13;6312820;20;2794044;-48
2023/10/23 03:11:20;;;;;;;;;16.67;12.00;;;;;9.02;100.00;99585.38;6312690;20;2791115;-49
2023/10/23 03:13:50;;;;;;;;;13.33;10.67;;;;;8.92;100.00;99589.50;6312382;20;2789333;-48
2023/10/23 03:16:18;;;;;;;;;14.00;14.00;;;;;8.98;100.00;99594.53;6316316;20;2803441;-48
2023/10/23 03:18:46;;;;;;;;;9.00;9.00;;;;;8.83;100.00;99595.41;6280581;20;2748619;-48
2023/10/23 03:21:14;;;;;;;;;12.67;11.00;;;;;8.69;100.00;99595.28;6279880;20;3517018;-48
2023/10/23 03:23:42;;;;;;;;;17.00;12.00;;;;;8.87;100.00;99596.94;6313396;20;2791945;-49
2023/10/23 03:26:12;;;;;;;;;14.00;13.00;;;;;9.36;100.00;99604.00;6305251;20;2797350;-48
2023/10/23 03:28:40;;;;;;;;;13.00;11.00;;;;;9.11;100.00;99609.91;6285011;20;2792010;-49
2023/10/23 03:31:09;;;;;;;;;14.33;13.33;;;;;9.16;100.00;99611.38;6280496;20;3521178;-48
2023/10/23 03:33:37;;;;;;;;;18.00;17.00;;;;;9.27;100.00;99616.13;6311025;20;2494170;-49
2023/10/23 03:36:06;;;;;;;;;16.67;16.00;;;;;9.55;100.00;99607.31;6281201;20;2827501;-49
2023/10/23 03:38:34;;;;;;;;;20.00;14.00;;;;;9.51;100.00;99607.63;6314683;20;2809627;-49
2023/10/23 03:41:03;;;;;;;;;18.00;16.00;;;;;9.44;100.00;99607.97;6280468;20;3433602;-49
2023/10/23 03:43:32;;;;;;;;;15.00;15.00;;;;;9.35;100.00;99607.66;6313392;20;2799238;-49
2023/10/23 03:46:04;;;;;;;;;13.00;12.00;;;;;9.43;100.00;99613.44;6279414;20;3539844;-41
2023/10/23 03:48:37;;;;;;;;;11.20;11.20;;;;;9.67;100.00;99608.44;6336516;20;2789832;-40
2023/10/23 03:51:05;;;;;;;;;14.50;14.50;;;;;9.18;100.00;99611.28;6282883;20;2810801;-39
2023/10/23 03:53:33;;;;;;;;;15.00;15.00;;;;;9.01;100.00;99610.44;6284165;20;2816989;-40
2023/10/23 03:56:08;;;;;;;;;12.00;12.00;;;;;9.01;100.00;99605.06;6282284;20;2791977;-39
2023/10/23 03:58:36;;;;;;;;;10.00;9.50;;;;;9.11;100.00;99616.16;6279454;20;2769041;-41
2023/10/23 04:01:05;;;;;;;;;12.00;11.67;;;;;9.25;100.00;99612.66;6280166;20;3516964;-39
2023/10/23 04:03:34;;;;;;;;;13.00;13.00;;;;;9.39;100.00;99610.03;6310959;20;3527541;-40
2023/10/23 04:06:04;;;;;;;;;19.50;18.00;;;;;9.36;100.00;99620.94;6310231;20;2830491;-40
2023/10/23 04:08:32;;;;;;;;;24.50;16.00;;;;;9.25;100.00;99623.38;6279742;20;2844115;-40
2023/10/23 04:11:01;;;;;;;;;18.67;14.00;;;;;9.07;100.00;99629.78;6280504;20;3539847;-49
2023/10/23 04:13:29;;;;;;;;;15.50;15.50;;;;;8.77;100.00;99623.38;6281715;20;2491947;-49
2023/10/23 04:16:02;;;;;;;;;14.67;14.67;;;;;8.82;100.00;99633.84;6283879;20;3528509;-49
2023/10/23 04:18:31;;;;;;;;;14.67;14.67;;;;;8.80;100.00;99630.38;6314747;20;3535712;-49
2023/10/23 04:21:11;;;;;;;;;14.33;13.33;;;;;8.26;100.00;99621.66;6317763;20;3519131;-40
2023/10/23 04:23:41;;;;;;;;;15.00;15.00;;;;;8.24;100.00;99623.56;6318141;20;2790971;-39
2023/10/23 04:26:09;;;;;;;;;12.00;12.00;;;;;8.75;100.00;99635.13;6288526;20;2790949;-49
2023/10/23 04:28:38;;;;;;;;;14.33;14.33;;;;;9.29;100.00;99635.63;6286628;20;3545080;-42
2023/10/23 04:31:07;;;;;;;;;12.00;11.60;;;;;8.91;100.00;99629.78;6340425;20;2785743;-41
2023/10/23 04:33:37;;;;;;;;;12.40;10.60;;;;;8.77;100.00;99641.25;6310107;20;2789877;-40
2023/10/23 04:36:06;;;;;;;;;16.67;13.67;;;;;8.50;100.00;99633.75;6281124;20;2790913;-40
2023/10/23 04:38:33;;;;;;;;;15.00;13.50;;;;;8.53;100.00;99638.97;6317801;20;2806604;-40
2023/10/23 04:41:01;;;;;;;;;15.00;15.00;;;;;8.87;100.00;99650.47;6287525;20;2789890;-40
2023/10/23 04:43:30;;;;;;;;;14.00;13.33;;;;;8.55;100.00;99647.75;6283346;20;3528894;-40
2023/10/23 04:45:59;;;;;;;;;18.00;16.00;;;;;9.04;100.00;99654.06;6279370;20;3554485;-40
2023/10/23 04:48:27;;;;;;;;;17.50;13.00;;;;;8.82;100.00;99652.56;6318228;20;2814935;-40
2023/10/23 04:51:00;;;;;;;;;19.00;17.67;;;;;8.99;100.00;99654.31;6284461;20;3567132;-40
2023/10/23 04:53:30;;;;;;;;;22.67;18.67;;;;;9.06;100.00;99658.38;6283389;20;3569108;-40
2023/10/23 04:55:58;;;;;;;;;18.33;18.33;;;;;8.94;100.00;99654.56;6283867;20;3554953;-41
2023/10/23 04:58:29;;;;;;;;;22.00;21.00;;;;;8.78;100.00;99667.06;6281633;20;2834730;-41
2023/10/23 05:00:58;;;;;;;;;26.00;22.50;;;;;8.98;100.00;99664.16;6284044;20;2848420;-40
2023/10/23 05:03:28;;;;;;;;;22.50;21.00;;;;;8.81;100.00;99663.34;6282380;20;2850472;-40
2023/10/23 05:05:55;;;;;;;;;22.00;18.00;;;;;8.66;100.00;99668.63;6280592;20;2500360;-39
2023/10/23 05:08:23;;;;;;;;;17.50;17.00;;;;;8.37;100.00;99664.75;6281845;20;2492079;-41
2023/10/23 05:10:52;;;;;;;;;11.67;11.67;;;;;8.00;100.00;99666.66;6284237;20;2797265;-39
2023/10/23 05:13:20;;;;;;;;;19.50;15.00;;;;;8.68;100.00;99669.38;6318154;20;2813831;-40
2023/10/23 05:15:48;;;;;;;;;17.00;17.00;;;;;8.74;100.00;99665.50;6284568;20;2832599;-41
2023/10/23 05:18:16;;;;;;;;;19.00;16.00;;;;;8.94;100.00;99667.09;6284518;20;3560668;-40
2023/10/23 05:20:45;;;;;;;;;20.00;20.00;;;;;8.96;100.00;99676.78;6282945;20;2833863;-40
2023/10/23 05:23:13;;;;;;;;;18.50;16.00;;;;;8.86;100.00;99670.19;6279885;20;2500297;-39
2023/10/23 05:25:42;;;;;;;;;18.00;18.00;;;;;8.90;100.00;99662.84;6280741;20;3575250;-43
2023/10/23 05:28:11;;;;;;;;;24.00;19.50;;;;;9.04;100.00;99673.66;6280725;20;2848306;-40
2023/10/23 05:30:39;;;;;;;;;36.00;33.00;;;;;8.98;100.00;99669.53;6283556;20;2860738;-40
2023/10/23 05:33:08;;;;;;;;;26.50;22.00;;;;;9.00;100.00;99673.00;6282966;20;2836835;-40
2023/10/23 05:35:37;;;;;;;;;23.00;21.50;;;;;9.22;100.00;99682.50;6281254;20;2836851;-40
2023/10/23 05:38:07;;;;;;;;;28.67;27.33;;;;;9.39;100.00;99679.72;6283507;20;3598206;-40
2023/10/23 05:40:35;;;;;;;;;32.00;27.67;;;;;9.53;100.00;99675.38;6315523;20;3607591;-40
2023/10/23 05:43:04;;;;;;;;;46.50;37.00;;;;;9.35;100.00;99683.53;6280476;20;2833688;-39
2023/10/23 05:45:37;;;;;;;;;39.33;34.67;;;;;9.69;100.00;99684.28;6282116;20;2859719;-39
2023/10/23 05:48:06;;;;;;;;;39.67;34.00;;;;;9.84;100.00;99686.06;6319051;20;3613808;-40
2023/10/23 05:50:35;;;;;;;;;39.00;34.33;;;;;10.18;100.00;99686.75;6281825;20;3604485;-41
2023/10/23 05:53:04;;;;;;;;;35.33;33.00;;;;;12.74;100.00;99682.66;6315035;20;3596290;-41
2023/10/23 05:55:36;;;;;;;;;36.00;31.67;;;;;15.52;86.48;99684.00;6280404;20;3606632;-40
2023/10/23 05:58:05;;;;;;;;;37.33;32.00;;;;;15.25;84.58;99697.09;6282544;20;3610659;-41
2023/10/23 06:00:34;;;;;;;;;63.33;48.67;;;;;12.36;97.48;99691.59;6311548;20;3609898;-41
2023/10/23 06:03:03;;;;;;;;;47.00;39.00;;;;;13.29;98.38;99703.00;6280703;20;2850440;-42
2023/10/23 06:05:32;;;;;;;;;31.67;31.00;;;;;14.99;87.18;99696.47;6285670;20;3598668;-41
2023/10/23 06:08:00;;;;;;;;;36.33;32.67;;;;;14.87;87.57;99698.28;6286087;20;3600403;-43
2023/10/23 06:10:30;;;;;;;;;34.33;32.33;;;;;13.62;93.75;99698.81;6284673;20;2859757;-42
2023/10/23 06:12:59;;;;;;;;;25.33;23.67;;;;;12.44;98.23;99694.63;6316305;20;3571311;-43
2023/10/23 06:15:28;;;;;;;;;23.00;21.00;;;;;12.02;100.00;99701.97;6278730;20;2850250;-41
2023/10/23 06:17:57;;;;;;;;;21.33;21.33;;;;;11.89;100.00;99695.69;6315089;20;3580517;-41
2023/10/23 06:20:26;;;;;;;;;20.00;17.00;;;;;11.48;100.00;99699.25;6280176;20;2835695;-41
2023/10/23 06:22:55;;;;;;;;;24.00;19.00;;;;;11.08;100.00;99709.84;6282939;20;2790910;-40
2023/10/23 06:25:26;;;;;;;;;19.67;17.67;;;;;11.94;100.00;99707.00;6279031;20;2840014;-39
2023/10/23 06:27:55;;;;;;;;;24.33;21.67;;;;;12.54;100.00;99715.53;6308175;20;3576336;-41
2023/10/23 06:30:24;;;;;;;;;29.00;28.00;;;;;12.29;100.00;99711.81;6281527;20;2851324;-42
2023/10/23 06:32:54;;;;;;;;;38.33;35.00;;;;;12.57;100.00;99715.31;6281526;20;2850351;-43
2023/10/23 06:35:22;;;;;;;;;30.67;29.00;;;;;12.91;100.00;99714.69;6312542;20;3573177;-41
2023/10/23 06:37:51;;;;;;;;;21.33;18.33;;;;;12.94;100.00;99711.75;6283268;20;3571136;-40
2023/10/23 06:40:21;;;;;;;;;21.67;20.33;;;;;14.05;96.26;99717.19;6277246;20;2835778;-40
2023/10/23 06:42:49;;;;;;;;;18.00;15.00;;;;;14.87;89.42;99722.63;6311310;20;2500332;-43
2023/10/23 06:45:20;;;;;;;;;16.50;15.00;;;;;15.74;84.79;99720.13;6281658;20;2814903;-40
2023/10/23 06:47:49;;;;;;;;;20.00;17.33;;;;;16.43;81.13;99717.06;6281424;20;3571673;-41
2023/10/23 06:50:18;;;;;;;;;31.67;30.00;;;;;15.67;80.83;99718.91;6281835;20;3589926;-42
2023/10/23 06:52:47;;;;;;;;;14.00;14.00;;;;;14.90;85.69;99725.06;6282035;20;2800676;-40
2023/10/23 06:55:17;;;;;;;;;28.67;22.33;;;;;14.94;86.97;99726.56;6279373;20;3599357;-41
2023/10/23 06:57:47;;;;;;;;;25.33;16.00;;;;;15.47;84.27;99729.50;6278555;20;3596101;-48
2023/10/23 07:00:16;;;;;;;;;20.33;16.00;;;;;16.96;79.36;99736.00;6312729;20;3561752;-42
2023/10/23 07:02:48;;;;;;;;;16.50;14.50;;;;;15.67;81.45;99729.75;6280399;20;2487782;-40
2023/10/23 07:05:17;;;;;;;;;22.33;18.33;;;;;15.03;86.44;99725.81;6284701;20;3570169;-45
2023/10/23 07:07:46;;;;;;;;;26.33;22.33;;;;;15.32;86.58;99722.63;6276647;20;2860844;-45
2023/10/23 07:10:16;;;;;;;;;38.25;30.75;;;;;14.91;88.49;99724.09;6312695;20;3611728;-41
2023/10/23 07:12:44;;;;;;;;;24.67;24.00;;;;;13.37;93.94;99722.19;6314402;20;3580960;-49
2023/10/23 07:15:13;;;;;;;;;22.00;18.00;;;;;13.56;96.89;99719.03;6278784;20;2838904;-42
2023/10/23 07:17:42;;;;;;;;;15.00;15.00;;;;;13.28;97.54;99712.06;6277715;20;2812882;-41
2023/10/23 07:20:12;;;;;;;;;22.00;18.00;;;;;14.79;94.20;99711.56;6280108;20;3563899;-41
2023/10/23 07:22:41;;;;;;;;;21.33;21.00;;;;;14.66;92.30;99722.44;6281330;20;3587967;-40
2023/10/23 07:25:11;;;;;;;;;20.00;15.00;;;;;13.95;96.42;99713.47;6307678;20;2825328;-41
2023/10/23 07:27:41;;;;;;;;;71.67;61.67;;;;;15.27;91.73;99717.63;6275712;20;3634732;-42
2023/10/23 07:30:11;;;;;;;;;15.67;13.67;;;;;15.06;92.30;99713.91;6310720;20;3534778;-45
2023/10/23 07:32:40;;;;;;;;;19.00;17.50;;;;;14.95;92.54;99713.91;6278999;20;2825326;-44
2023/10/23 07:35:13;;;;;;;;;70.67;60.67;;;;;15.69;89.81;99723.25;6279278;20;2861864;-44
2023/10/23 07:37:41;;;;;;;;;11.00;11.00;;;;;15.25;90.57;99718.72;6309836;20;2483742;-42
2023/10/23 07:40:11;;;;;;;;;17.00;16.00;;;;;16.18;87.67;99713.72;6274980;20;2824281;-44
2023/10/23 07:42:39;;;;;;;;;24.33;23.33;;;;;16.26;88.49;99721.22;6284030;20;3584712;-43
2023/10/23 07:45:09;;;;;;;;;22.00;19.67;;;;;16.10;88.13;99720.78;6283225;20;3573274;-42
2023/10/23 07:47:38;;;;;;;;;21.33;17.33;;;;;16.61;85.66;99725.44;6280703;20;3573289;-43
2023/10/23 07:50:08;;;;;;;;;17.00;17.00;;;;;15.97;88.69;99716.38;6316959;20;2826318;-42
2023/10/23 07:52:36;;;;;;;;;17.00;17.00;;;;;15.98;89.38;99728.06;6289052;20;3567972;-42
2023/10/23 07:55:06;;;;;;;;;16.00;15.00;;;;;16.70;85.31;99724.69;6282714;20;2812879;-42
2023/10/23 07:57:34;;;;;;;;;19.00;16.00;;;;;16.83;83.54;99730.78;6281942;20;2833639;-42
2023/10/23 08:00:06;;;;;;;;;14.67;14.33;;;;;16.94;83.85;99737.97;6288173;20;3528476;-43
2023/10/23 08:02:34;;;;;;;;;15.00;13.00;;;;;17.04;83.06;99738.91;6320725;20;3520303;-42
2023/10/23 08:05:04;;;;;;;;;13.33;13.00;;;;;16.88;83.75;99744.81;6314380;20;3519050;-43
2023/10/23 08:07:33;;;;;;;;;14.67;12.00;;;;;16.95;82.08;99755.97;6311776;20;3524344;-42
2023/10/23 08:10:02;;;;;;;;;11.50;10.00;;;;;17.35;81.41;99747.03;6319602;20;2791149;-43
2023/10/23 08:12:30;;;;;;;;;8.50;8.50;;;;;16.82;83.35;99749.88;6285996;20;2747191;-44
2023/10/23 08:14:58;;;;;;;;;11.00;10.50;;;;;17.68;80.70;99756.72;6290623;20;2788147;-44
2023/10/23 08:17:26;;;;;;;;;24.00;22.67;;;;;17.08;81.65;99747.63;6281950;20;3582965;-42
2023/10/23 08:20:09;;;;;;;;;7.00;7.00;;;;;17.13;80.73;99739.09;6286767;20;2730757;-42
2023/10/23 08:22:39;;;;;;;;;9.40;7.60;;;;;17.16;80.53;99739.66;6309568;20;2734648;-42
2023/10/23 08:25:07;;;;;;;;;8.00;8.00;;;;;16.91;81.89;99737.41;6324327;20;2739888;-41
2023/10/23 08:27:39;;;;;;;;;7.57;7.57;;;;;17.22;82.15;99741.84;6329950;20;3450309;-41
2023/10/23 08:30:10;;;;;;;;;8.40;8.40;;;;;17.67;79.37;99752.31;6344461;20;2734631;-42
2023/10/23 08:32:38;;;;;;;;;13.50;13.50;;;;;17.73;77.46;99746.31;6319065;20;2483604;-41
2023/10/23 08:35:22;;;;;;;;;9.80;8.60;;;;;17.82;78.14;99738.34;6308135;20;2758636;-41
2023/10/23 08:37:51;;;;;;;;;6.00;6.00;;;;;17.04;78.65;99738.06;6311265;20;2738868;-41
2023/10/23 08:40:22;;;;;;;;;6.50;6.50;;;;;18.10;76.77;99739.41;6344190;20;2046336;-42
2023/10/23 08:42:53;;;;;;;;;6.60;6.60;;;;;17.16;77.96;99739.66;6341456;20;2746174;-42
2023/10/23 08:45:21;;;;;;;;;6.33;6.00;;;;;17.83;77.41;99740.94;6320141;20;2748380;-41
2023/10/23 08:47:51;;;;;;;;;9.00;9.00;;;;;17.08;79.30;99736.75;6342390;20;2746150;-41
2023/10/23 08:50:21;;;;;;;;;8.00;5.40;;;;;17.96;78.73;99746.97;6342428;20;2725325;-41
2023/10/23 08:53:00;;;;;;;;;6.60;6.60;;;;;18.59;76.13;99740.28;6341337;20;2739944;-42
2023/10/23 08:55:29;;;;;;;;;5.00;5.00;;;;;17.88;74.72;99738.69;6338288;20;2745094;-48
2023/10/23 08:58:04;;;;;;;;;5.40;5.40;;;;;17.88;75.11;99744.09;6341757;20;2741134;-51
2023/10/23 09:00:34;;;;;;;;;4.60;4.60;;;;;18.43;75.05;99746.28;6342767;20;2737784;-47
2023/10/23 09:03:05;;;;;;;;;7.00;7.00;;;;;17.84;75.08;99741.81;6311060;20;2740927;-45
2023/10/23 09:05:34;;;;;;;;;6.33;6.33;;;;;18.47;73.24;99741.44;6310894;20;2746286;-45
2023/10/23 09:08:04;;;;;;;;;5.80;4.00;;;;;18.45;73.19;99733.41;6339922;20;2747139;-46
2023/10/23 09:10:33;;;;;;;;;5.33;5.33;;;;;18.80;71.21;99727.41;6290187;20;2728451;-46
2023/10/23 09:13:02;;;;;;;;;6.00;6.00;;;;;18.84;69.23;99727.97;6317485;20;2743020;-46
2023/10/23 09:15:31;;;;;;;;;8.00;7.33;;;;;18.99;65.83;99722.91;6315273;20;3461765;-46
2023/10/23 09:18:02;;;;;;;;;1.80;1.80;;;;;18.25;67.57;99723.56;6339381;20;2743023;-47
2023/10/23 09:20:31;;;;;;;;;4.67;4.67;;;;;18.68;67.39;99730.41;6317431;20;2750304;-45
2023/10/23 09:23:03;;;;;;;;;3.00;3.00;;;;;18.74;68.06;99735.25;6338935;20;2750328;-46
2023/10/23 09:25:33;;;;;;;;;3.00;3.00;;;;;19.46;65.44;99742.81;6342755;20;2731596;-45
2023/10/23 09:28:11;;;;;;;;;4.00;3.60;;;;;18.70;63.64;99742.00;6340441;20;2738938;-46
2023/10/23 09:30:42;;;;;;;;;4.40;4.40;;;;;19.08;63.02;99747.38;6341013;20;2748411;-44
2023/10/23 09:33:14;;;;;;;;;4.00;4.00;;;;;18.93;61.95;99751.59;6283734;20;2750316;-46
2023/10/23 09:35:44;;;;;;;;;5.60;4.00;;;;;18.49;62.48;99742.16;6343015;20;2750282;-52
2023/10/23 09:38:15;;;;;;;;;2.00;2.00;;;;;18.99;63.58;99742.81;6283593;20;2734727;-48
2023/10/23 09:40:45;;;;;;;;;7.33;5.00;;;;;19.00;60.82;99747.25;6317792;20;2748213;-50
2023/10/23 09:43:14;;;;;;;;;3.00;3.00;;;;;18.72;62.91;99734.53;6320882;20;2741981;-46
2023/10/23 09:45:43;;;;;;;;;2.00;2.00;;;;;19.57;61.47;99738.19;6319141;20;2750403;-47
2023/10/23 09:48:13;;;;;;;;;2.40;2.40;;;;;19.37;61.14;99734.66;6339775;20;2748277;-48
2023/10/23 09:50:43;;;;;;;;;4.67;2.33;;;;;19.04;62.49;99731.50;6317150;20;2746368;-47
2023/10/23 09:53:18;;;;;;;;;4.00;2.67;;;;;19.67;60.96;99730.84;6319924;20;2741095;-49
2023/10/23 09:55:51;;;;;;;;;2.80;2.80;;;;;19.39;61.64;99733.50;6338717;20;2746127;-50
2023/10/23 09:58:23;;;;;;;;;2.00;2.00;;;;;19.63;59.92;99729.38;6285712;20;2752395;-47
2023/10/23 10:00:55;;;;;;;;;1.86;0.43;;;;;20.02;57.31;99726.47;6356905;20;3432649;-49
2023/10/23 10:03:28;;;;;;;;;2.00;2.00;;;;;20.53;56.13;99719.44;6318414;20;2752375;-50
2023/10/23 10:06:10;;;;;;;;;0.67;0.67;;;;;19.90;54.59;99729.38;6318166;20;2750703;-48
2023/10/23 10:08:49;;;;;;;;;0.00;0.00;;;;;19.93;52.68;99720.94;6319226;20;2729544;-45
2023/10/23 10:11:18;;;;;;;;;1.00;1.00;;;;;20.38;52.60;99722.72;6317698;20;2727389;-45
2023/10/23 10:13:49;;;;;;;;;1.67;0.00;;;;;20.07;51.19;99721.41;6318885;20;2729624;-46
2023/10/23 10:16:19;;;;;;;;;89.33;88.33;;;;;19.89;53.70;99721.38;6314829;20;3645062;-47
2023/10/23 10:18:48;;;;;;;;;0.00;0.00;;;;;19.28;52.29;99717.38;6285368;20;2729581;-46
2023/10/23 10:21:22;;;;;;;;;2.00;1.00;;;;;19.83;53.71;99722.00;6319205;20;2729448;-49
2023/10/23 10:23:52;;;;;;;;;1.33;0.00;;;;;19.70;50.59;99716.91;6319739;20;2729507;-47
2023/10/23 10:26:22;;;;;;;;;0.00;0.00;;;;;19.72;51.17;99720.31;6316479;20;2731545;-47
2023/10/23 10:28:54;;;;;;;;;0.67;0.67;;;;;19.25;52.56;99706.78;6321064;20;2731600;-46
2023/10/23 10:31:27;;;;;;;;;0.00;0.00;;;;;19.33;50.08;99703.31;6359813;20;3435829;-47
2023/10/23 10:33:55;;;;;;;;;1.00;1.00;;;;;19.40;50.71;99702.53;6321069;20;2730498;-48
2023/10/23 10:36:46;;;;;;;;;1.00;1.00;;;;;20.12;51.51;99694.53;6317011;20;2724332;-51
2023/10/23 10:39:17;;;;;;;;;1.00;1.00;;;;;18.77;51.69;99702.34;6318394;20;2733632;-46
2023/10/23 10:41:46;;;;;;;;;0.33;0.33;;;;;19.77;51.97;99700.78;6319710;20;2729471;-51
2023/10/23 10:44:17;;;;;;;;;0.33;0.33;;;;;19.65;53.42;99698.25;6320407;20;2731570;-49
2023/10/23 10:46:49;;;;;;;;;0.00;0.00;;;;;20.03;51.32;99690.00;6314754;20;2727400;-49
2023/10/23 10:49:23;;;;;;;;;0.00;0.00;;;;;19.78;53.18;99687.03;6321042;20;2727794;-53
2023/10/23 10:51:51;;;;;;;;;1.00;1.00;;;;;19.81;53.04;99685.88;6320044;20;2730872;-49
2023/10/23 10:54:21;;;;;;;;;2.00;0.67;;;;;20.02;53.10;99682.84;6316710;20;2736257;-48
2023/10/23 10:56:51;;;;;;;;;1.00;1.00;;;;;19.83;52.77;99683.84;6318346;20;2727320;-47
2023/10/23 10:59:27;;;;;;;;;1.00;1.00;;;;;19.52;54.59;99690.44;6319711;20;2730543;-44
2023/10/23 11:01:56;;;;;;;;;2.00;0.00;;;;;19.97;53.77;99690.63;6319841;20;2725309;-42
2023/10/23 11:04:25;;;;;;;;;0.67;0.00;;;;;20.27;53.02;99692.94;6319175;20;2727375;-44
2023/10/23 11:06:53;;;;;;;;;1.00;1.00;;;;;19.31;55.19;99689.84;6314172;20;2729579;-42
2023/10/23 11:09:22;;;;;;;;;0.00;0.00;;;;;19.77;55.17;99689.91;6315641;20;2727475;-42
2023/10/23 11:11:50;;;;;;;;;1.33;0.33;;;;;20.34;54.25;99687.75;6317648;20;2733640;-44
2023/10/23 11:14:19;;;;;;;;;0.00;0.00;;;;;19.67;55.53;99684.53;6314143;20;2733683;-42